createdAt,value
2022-08-24T00:00:37.495Z,55.08
2022-08-24T00:03:04.622Z,49.65
2022-08-24T00:05:31.700Z,56.60
2022-08-24T00:07:58.981Z,56.80
2022-08-24T00:10:26.697Z,55.22
2022-08-24T00:12:53.683Z,58.72
2022-08-24T00:15:21.230Z,67.55
2022-08-24T00:17:48.123Z,49.60
2022-08-24T00:20:15.055Z,50.42
2022-08-24T00:22:42.610Z,57.58
2022-08-24T00:25:12.379Z,53.03
2022-08-24T00:27:41.025Z,43.38
2022-08-24T00:30:11.737Z,47.38
2022-08-24T00:32:38.730Z,62.97
2022-08-24T00:35:07.404Z,51.35
2022-08-24T00:37:34.544Z,62.40
2022-08-24T00:40:02.106Z,52.28
2022-08-24T00:42:29.048Z,47.22
2022-08-24T00:44:56.015Z,46.40
2022-08-24T00:47:28.372Z,66.15
2022-08-24T00:50:07.267Z,53.85
2022-08-24T00:52:39.400Z,49.42
2022-08-24T00:55:13.720Z,47.37
2022-08-24T00:57:44.670Z,62.53
2022-08-24T01:00:16.783Z,52.33
2022-08-24T01:02:49.001Z,58.40
2022-08-24T01:05:19.444Z,55.15
2022-08-24T01:07:50.818Z,55.83
2022-08-24T01:10:25.140Z,40.40
2022-08-24T01:13:00.035Z,44.88
2022-08-24T01:15:33.798Z,53.13
2022-08-24T01:18:20.330Z,46.05
2022-08-24T01:20:52.667Z,47.85
2022-08-24T01:23:45.532Z,45.85
2022-08-24T01:26:18.572Z,55.88
2022-08-24T01:28:49.133Z,45.30
2022-08-24T01:31:21.327Z,53.28
2022-08-24T01:33:51.423Z,52.35
2022-08-24T01:36:30.362Z,45.75
2022-08-24T01:39:02.324Z,43.05
2022-08-24T01:41:29.452Z,54.85
2022-08-24T01:43:58.286Z,49.60
2022-08-24T01:46:25.624Z,48.55
2022-08-24T01:48:52.864Z,45.22
2022-08-24T01:51:21.311Z,46.20
2022-08-24T01:53:49.344Z,40.17
2022-08-24T01:56:16.762Z,49.97
2022-08-24T01:58:46.249Z,44.40
2022-08-24T02:01:15.215Z,57.85
2022-08-24T02:03:42.101Z,55.90
2022-08-24T02:06:09.263Z,47.25
2022-08-24T02:08:36.295Z,49.13
2022-08-24T02:11:06.823Z,57.05
2022-08-24T02:13:33.793Z,49.95
2022-08-24T02:16:01.044Z,47.47
2022-08-24T02:18:28.428Z,66.32
2022-08-24T02:20:55.410Z,44.67
2022-08-24T02:23:22.526Z,48.25
2022-08-24T02:25:49.962Z,55.08
2022-08-24T02:28:17.345Z,52.13
2022-08-24T02:30:44.893Z,51.63
2022-08-24T02:33:12.997Z,47.97
2022-08-24T02:35:41.416Z,49.30
2022-08-24T02:38:10.061Z,46.17
2022-08-24T02:40:38.069Z,53.05
2022-08-24T02:43:06.071Z,47.33
2022-08-24T02:45:37.528Z,46.80
2022-08-24T02:48:05.120Z,52.95
2022-08-24T02:50:32.104Z,52.25
2022-08-24T02:52:59.091Z,50.08
2022-08-24T02:55:26.092Z,52.47
2022-08-24T02:57:53.021Z,46.65
2022-08-24T03:00:22.091Z,50.28
2022-08-24T03:02:49.127Z,55.42
2022-08-24T03:05:17.309Z,62.33
2022-08-24T03:07:44.497Z,61.90
2022-08-24T03:10:11.785Z,63.65
2022-08-24T03:12:39.583Z,58.40
2022-08-24T03:15:09.907Z,58.53
2022-08-24T03:17:38.029Z,50.83
2022-08-24T03:20:11.160Z,54.35
2022-08-24T03:22:38.927Z,41.53
2022-08-24T03:25:06.750Z,63.13
2022-08-24T03:27:33.690Z,50.85
2022-08-24T03:30:01.383Z,52.05
2022-08-24T03:32:28.383Z,52.60
2022-08-24T03:34:56.006Z,51.30
2022-08-24T03:37:22.893Z,63.78
2022-08-24T03:39:51.122Z,59.88
2022-08-24T03:42:19.008Z,53.22
2022-08-24T03:44:45.957Z,61.75
2022-08-24T03:47:13.428Z,59.42
2022-08-24T03:49:40.855Z,54.42
2022-08-24T03:52:07.797Z,53.10
2022-08-24T03:54:34.779Z,53.40
2022-08-24T03:57:01.845Z,69.53
2022-08-24T03:59:28.839Z,58.42
2022-08-24T04:01:57.448Z,49.30
2022-08-24T04:04:25.035Z,63.03
2022-08-24T04:06:52.172Z,64.57
2022-08-24T04:09:19.684Z,63.95
2022-08-24T04:11:46.730Z,56.85
2022-08-24T04:14:23.581Z,75.32
2022-08-24T04:16:57.478Z,59.30
2022-08-24T04:19:25.024Z,72.15
2022-08-24T04:21:52.001Z,62.58
2022-08-24T04:24:20.547Z,55.53
2022-08-24T04:26:47.911Z,64.43
2022-08-24T04:29:17.093Z,57.58
2022-08-24T04:31:44.815Z,60.78
2022-08-24T04:34:13.965Z,56.03
2022-08-24T04:36:43.072Z,66.18
2022-08-24T04:39:10.083Z,68.30
2022-08-24T04:41:37.448Z,73.97
2022-08-24T04:44:05.865Z,66.78
2022-08-24T04:46:32.785Z,63.42
2022-08-24T04:48:59.680Z,60.30
2022-08-24T04:51:26.986Z,61.72
2022-08-24T04:53:57.910Z,63.60
2022-08-24T04:56:25.729Z,68.45
2022-08-24T04:58:54.809Z,71.72
2022-08-24T05:01:24.616Z,64.93
2022-08-24T05:03:54.341Z,70.97
2022-08-24T05:06:23.967Z,71.35
2022-08-24T05:08:51.884Z,62.95
2022-08-24T05:11:20.301Z,55.60
2022-08-24T05:13:47.577Z,65.30
2022-08-24T05:16:17.888Z,73.53
2022-08-24T05:18:46.169Z,65.10
2022-08-24T05:21:15.902Z,68.45
2022-08-24T05:23:45.082Z,77.35
2022-08-24T05:26:18.576Z,61.65
2022-08-24T05:28:46.610Z,62.30
2022-08-24T05:31:20.034Z,85.35
2022-08-24T05:33:48.630Z,100.45
2022-08-24T05:36:22.361Z,72.95
2022-08-24T05:38:50.623Z,67.40
2022-08-24T05:41:17.992Z,77.03
2022-08-24T05:43:45.091Z,64.28
2022-08-24T05:46:12.432Z,137.98
2022-08-24T05:48:39.621Z,74.78
2022-08-24T05:51:08.790Z,67.78
2022-08-24T05:53:36.606Z,55.15
2022-08-24T05:56:12.241Z,71.53
2022-08-24T05:58:39.959Z,64.63
2022-08-24T06:01:12.840Z,68.72
2022-08-24T06:06:08.665Z,91.50
2022-08-24T06:08:41.205Z,67.35
2022-08-24T06:11:09.239Z,80.85
2022-08-24T06:13:36.558Z,88.72
2022-08-24T06:16:22.011Z,68.50
2022-08-24T06:18:50.844Z,78.78
2022-08-24T06:21:21.160Z,70.65
2022-08-24T06:23:49.300Z,67.75
2022-08-24T06:26:34.684Z,81.30
2022-08-24T06:29:02.457Z,63.95
2022-08-24T06:31:39.470Z,76.05
2022-08-24T06:34:07.889Z,64.82
2022-08-24T06:36:34.792Z,73.35
2022-08-24T06:39:01.690Z,66.95
2022-08-24T06:41:28.771Z,62.58
2022-08-24T06:43:55.825Z,61.85
2022-08-24T06:46:25.706Z,66.32
2022-08-24T06:48:54.697Z,55.55
2022-08-24T06:51:22.706Z,68.45
2022-08-24T06:53:50.797Z,60.38
2022-08-24T06:56:18.594Z,124.57
2022-08-24T06:58:46.022Z,65.53
2022-08-24T07:01:16.939Z,63.55
2022-08-24T07:03:44.974Z,56.35
2022-08-24T07:06:13.632Z,62.85
2022-08-24T07:08:42.393Z,52.47
2022-08-24T07:11:11.483Z,49.92
2022-08-24T07:13:38.842Z,61.90
2022-08-24T07:16:06.030Z,53.05
2022-08-24T07:18:33.614Z,47.88
2022-08-24T07:21:02.586Z,50.60
2022-08-24T07:23:41.759Z,44.47
2022-08-24T07:26:20.983Z,53.08
2022-08-24T07:29:01.258Z,65.97
2022-08-24T07:31:31.980Z,49.50
2022-08-24T07:34:01.961Z,43.80
2022-08-24T07:36:29.205Z,49.92
2022-08-24T07:38:57.404Z,47.90
2022-08-24T07:44:13.633Z,46.08
2022-08-24T07:46:41.988Z,41.55
2022-08-24T07:49:12.686Z,43.80
2022-08-24T07:51:48.662Z,51.58
2022-08-24T07:54:15.948Z,41.33
2022-08-24T07:56:43.322Z,50.30
2022-08-24T07:59:13.266Z,39.08
2022-08-24T08:01:41.413Z,41.67
2022-08-24T08:04:09.661Z,95.72
2022-08-24T08:06:37.153Z,55.28
2022-08-24T08:09:05.534Z,38.08
2022-08-24T08:11:32.603Z,45.42
2022-08-24T08:13:59.760Z,33.63
2022-08-24T08:16:27.633Z,38.03
2022-08-24T08:19:11.168Z,30.45
2022-08-24T08:22:05.066Z,30.40
2022-08-24T08:24:32.656Z,28.10
2022-08-24T08:27:00.363Z,37.95
2022-08-24T08:29:27.863Z,29.88
2022-08-24T08:31:55.163Z,34.95
2022-08-24T08:34:22.172Z,37.05
2022-08-24T08:36:49.577Z,35.75
2022-08-24T08:39:18.435Z,43.97
2022-08-24T08:42:15.482Z,32.55
2022-08-24T08:44:52.374Z,34.85
2022-08-24T08:47:37.698Z,38.88
2022-08-24T08:50:23.895Z,90.13
2022-08-24T08:53:12.467Z,37.72
2022-08-24T08:55:45.171Z,41.42
2022-08-24T08:58:40.948Z,28.00
2022-08-24T09:01:47.028Z,43.80
2022-08-24T09:04:59.280Z,36.35
2022-08-24T09:07:50.759Z,36.00
2022-08-24T09:10:44.544Z,35.85
2022-08-24T09:14:06.860Z,38.95
2022-08-24T09:16:39.678Z,37.57
2022-08-24T09:19:31.731Z,38.83
2022-08-24T09:22:13.774Z,40.63
2022-08-24T09:24:43.233Z,37.15
2022-08-24T09:27:31.707Z,37.00
2022-08-24T09:30:08.571Z,41.75
2022-08-24T09:32:37.784Z,47.25
2022-08-24T09:35:26.368Z,41.10
2022-08-24T09:38:02.986Z,36.13
2022-08-24T09:40:54.270Z,47.63
2022-08-24T09:43:47.860Z,37.10
2022-08-24T09:46:20.246Z,33.85
2022-08-24T09:48:53.051Z,48.50
2022-08-24T09:51:44.464Z,48.50
2022-08-24T09:56:44.974Z,34.97
2022-08-24T09:59:49.307Z,36.33
2022-08-24T10:02:25.072Z,51.78
2022-08-24T10:05:11.414Z,47.83
2022-08-24T10:07:58.505Z,38.67
2022-08-24T10:10:51.363Z,50.95
2022-08-24T10:13:24.461Z,38.72
2022-08-24T10:16:16.059Z,35.80
2022-08-24T10:19:08.775Z,32.92
2022-08-24T10:21:48.640Z,37.13
2022-08-24T10:24:29.640Z,33.08
2022-08-24T10:27:04.513Z,39.45
2022-08-24T10:30:07.945Z,42.33
2022-08-24T10:32:42.933Z,41.67
2022-08-24T10:35:33.864Z,44.00
2022-08-24T10:38:41.307Z,36.00
2022-08-24T10:41:45.446Z,33.20
2022-08-24T10:44:27.328Z,42.15
2022-08-24T10:46:59.712Z,43.08
2022-08-24T10:49:29.170Z,32.78
2022-08-24T10:52:38.080Z,34.90
2022-08-24T10:55:28.390Z,42.33
2022-08-24T10:58:02.901Z,38.70
2022-08-24T11:00:30.938Z,38.40
2022-08-24T11:03:08.529Z,35.63
2022-08-24T11:05:47.104Z,40.75
2022-08-24T11:08:33.516Z,51.35
2022-08-24T11:11:13.762Z,37.85
2022-08-24T11:14:23.886Z,35.50
2022-08-24T11:16:55.771Z,45.78
2022-08-24T11:19:27.541Z,38.33
2022-08-24T11:21:58.301Z,38.67
2022-08-24T11:24:48.300Z,38.38
2022-08-24T11:27:19.702Z,40.53
2022-08-24T11:29:52.617Z,35.38
2022-08-24T11:32:39.186Z,41.00
2022-08-24T11:35:27.227Z,38.80
2022-08-24T11:38:08.462Z,31.40
2022-08-24T11:40:39.865Z,41.15
2022-08-24T11:43:32.522Z,39.72
2022-08-24T11:46:26.805Z,44.72
2022-08-24T11:49:09.926Z,36.33
2022-08-24T11:51:52.174Z,57.55
2022-08-24T11:54:51.068Z,41.88
2022-08-24T11:57:53.913Z,36.72
2022-08-24T12:00:25.040Z,46.83
2022-08-24T12:03:29.184Z,54.63
2022-08-24T12:06:04.357Z,53.60
2022-08-24T12:08:46.497Z,54.90
2022-08-24T12:11:34.847Z,52.33
2022-08-24T12:14:02.828Z,64.20
2022-08-24T12:16:55.591Z,59.33
2022-08-24T12:19:29.793Z,60.15
2022-08-24T12:22:01.014Z,55.03
2022-08-24T12:24:44.478Z,53.83
2022-08-24T12:27:17.699Z,51.17
2022-08-24T12:30:05.702Z,56.38
2022-08-24T12:32:58.023Z,55.38
2022-08-24T12:35:36.916Z,46.75
2022-08-24T12:38:29.307Z,57.28
2022-08-24T12:43:40.677Z,57.72
2022-08-24T12:46:08.308Z,60.95
2022-08-24T12:49:19.519Z,54.10
2022-08-24T12:51:49.306Z,66.65
2022-08-24T12:54:47.187Z,47.17
2022-08-24T12:57:29.882Z,58.28
2022-08-24T13:00:06.939Z,68.88
2022-08-24T13:02:47.898Z,70.68
2022-08-24T13:05:19.155Z,57.22
2022-08-24T13:07:49.606Z,57.90
2022-08-24T13:10:38.386Z,61.05
2022-08-24T13:13:05.211Z,62.67
2022-08-24T13:15:32.008Z,59.58
2022-08-24T13:18:11.028Z,64.68
2022-08-24T13:20:44.362Z,60.80
2022-08-24T13:23:11.343Z,66.35
2022-08-24T13:25:47.328Z,73.50
2022-08-24T13:28:23.423Z,66.22
2022-08-24T13:30:58.577Z,70.60
2022-08-24T13:33:51.261Z,74.65
2022-08-24T13:36:42.747Z,60.92
2022-08-24T13:39:24.534Z,58.17
2022-08-24T13:42:02.607Z,70.30
2022-08-24T13:44:48.163Z,60.65
2022-08-24T13:47:29.195Z,69.25
2022-08-24T13:50:04.397Z,76.47
2022-08-24T13:52:55.295Z,59.92
2022-08-24T13:55:50.686Z,73.72
2022-08-24T13:58:43.455Z,68.35
2022-08-24T14:01:50.422Z,54.00
2022-08-24T14:04:26.390Z,66.45
2022-08-24T14:07:08.359Z,75.53
2022-08-24T14:09:59.013Z,74.53
2022-08-24T14:12:34.719Z,63.92
2022-08-24T14:15:17.665Z,68.30
2022-08-24T14:18:12.632Z,72.15
2022-08-24T14:20:53.655Z,78.50
2022-08-24T14:23:59.871Z,64.38
2022-08-24T14:26:40.126Z,71.57
2022-08-24T14:29:34.437Z,78.63
2022-08-24T14:32:12.183Z,73.50
2022-08-24T14:34:42.425Z,67.78
2022-08-24T14:37:14.583Z,69.63
2022-08-24T14:39:53.643Z,78.63
2022-08-24T14:42:41.725Z,87.03
2022-08-24T14:45:34.951Z,73.70
2022-08-24T14:48:10.989Z,82.85
2022-08-24T14:50:48.929Z,68.07
2022-08-24T14:53:47.043Z,86.13
2022-08-24T14:57:16.196Z,77.93
2022-08-24T15:00:00.646Z,70.90
2022-08-24T15:02:30.303Z,70.75
2022-08-24T15:05:23.520Z,69.82
2022-08-24T15:08:01.814Z,71.32
2022-08-24T15:10:48.767Z,75.53
2022-08-24T15:13:35.939Z,98.13
2022-08-24T15:16:14.747Z,69.38
2022-08-24T15:18:59.863Z,73.15
2022-08-24T15:21:50.698Z,59.72
2022-08-24T15:24:29.506Z,54.95
2022-08-24T15:27:19.742Z,57.70
2022-08-24T15:29:58.786Z,63.88
2022-08-24T15:32:49.067Z,55.58
2022-08-24T15:35:30.442Z,59.92
2022-08-24T15:37:58.264Z,64.40
2022-08-24T15:40:31.544Z,57.53
2022-08-24T15:43:04.112Z,57.92
2022-08-24T15:48:00.738Z,61.50
2022-08-24T15:50:35.071Z,69.57
2022-08-24T15:53:12.501Z,61.78
2022-08-24T15:55:43.377Z,70.82
2022-08-24T15:58:36.445Z,54.67
2022-08-24T16:04:14.214Z,60.45
2022-08-24T16:06:45.672Z,55.30
2022-08-24T16:09:18.680Z,54.38
2022-08-24T16:12:04.169Z,46.92
2022-08-24T16:14:37.668Z,48.10
2022-08-24T16:17:27.764Z,50.80
2022-08-24T16:19:58.430Z,50.42
2022-08-24T16:22:39.045Z,64.15
2022-08-24T16:25:26.129Z,58.25
2022-08-24T16:27:56.299Z,37.92
2022-08-24T16:30:28.483Z,52.28
2022-08-24T16:32:57.857Z,42.83
2022-08-24T16:35:25.415Z,49.25
2022-08-24T16:37:52.928Z,44.65
2022-08-24T16:40:20.240Z,36.88
2022-08-24T16:42:47.766Z,33.80
2022-08-24T16:45:18.877Z,56.88
2022-08-24T16:47:47.172Z,50.03
2022-08-24T16:50:20.039Z,59.30
2022-08-24T16:52:48.586Z,48.58
2022-08-24T16:55:15.594Z,44.83
2022-08-24T16:57:43.139Z,41.08
2022-08-24T17:00:15.647Z,35.60
2022-08-24T17:02:43.317Z,48.47
2022-08-24T17:05:11.128Z,47.22
2022-08-24T17:07:38.380Z,44.13
2022-08-24T17:10:09.174Z,40.92
2022-08-24T17:12:37.140Z,40.75
2022-08-24T17:15:07.611Z,48.75
2022-08-24T17:17:35.010Z,59.00
2022-08-24T17:20:02.142Z,51.55
2022-08-24T17:22:29.698Z,49.92
2022-08-24T17:24:57.075Z,45.85
2022-08-24T17:27:32.485Z,49.00
2022-08-24T17:30:00.562Z,53.13
2022-08-24T17:32:27.571Z,49.65
2022-08-24T17:34:55.018Z,53.63
2022-08-24T17:37:22.117Z,46.35
2022-08-24T17:39:58.332Z,47.05
2022-08-24T17:42:49.470Z,51.47
2022-08-24T17:45:15.075Z,40.45
2022-08-24T17:47:46.440Z,45.80
2022-08-24T17:50:15.201Z,40.70
2022-08-24T17:52:43.073Z,46.70
2022-08-24T17:55:12.606Z,39.13
2022-08-24T17:57:42.179Z,51.83
2022-08-24T18:00:13.825Z,35.30
2022-08-24T18:02:42.051Z,52.70
2022-08-24T18:05:11.340Z,46.47
2022-08-24T18:07:52.367Z,30.30
2022-08-24T18:10:23.833Z,45.13
2022-08-24T18:12:50.927Z,46.95
2022-08-24T18:15:17.910Z,55.40
2022-08-24T18:17:49.691Z,47.42
2022-08-24T18:20:27.722Z,34.85
2022-08-24T18:22:55.087Z,57.15
2022-08-24T18:25:25.410Z,48.55
2022-08-24T18:27:55.159Z,49.47
2022-08-24T18:30:28.859Z,41.97
2022-08-24T18:32:57.970Z,46.08
2022-08-24T18:35:25.075Z,37.08
2022-08-24T18:37:51.999Z,46.85
2022-08-24T18:40:20.481Z,52.40
2022-08-24T18:42:50.838Z,51.03
2022-08-24T18:45:18.475Z,47.53
2022-08-24T18:47:53.215Z,39.78
2022-08-24T18:50:21.261Z,53.95
2022-08-24T18:52:48.405Z,43.75
2022-08-24T18:55:16.586Z,42.65
2022-08-24T18:57:43.475Z,49.17
2022-08-24T19:00:11.257Z,37.95
2022-08-24T19:02:40.617Z,37.17
2022-08-24T19:05:10.279Z,39.55
2022-08-24T19:07:40.783Z,50.70
2022-08-24T19:10:13.744Z,32.72
2022-08-24T19:12:48.855Z,28.48
2022-08-24T19:15:32.282Z,37.58
2022-08-24T19:18:10.128Z,39.83
2022-08-24T19:20:43.500Z,39.42
2022-08-24T19:23:22.478Z,43.13
2022-08-24T19:25:50.986Z,33.03
2022-08-24T19:28:19.269Z,33.47
2022-08-24T19:30:47.307Z,45.67
2022-08-24T19:33:25.572Z,47.85
2022-08-24T19:35:53.274Z,33.83
2022-08-24T19:38:25.161Z,31.70
2022-08-24T19:40:53.302Z,36.45
2022-08-24T19:43:20.256Z,40.65
2022-08-24T19:46:03.336Z,41.20
2022-08-24T19:48:36.550Z,35.67
2022-08-24T19:51:06.311Z,41.25
2022-08-24T19:53:36.490Z,41.25
2022-08-24T19:56:05.478Z,38.25
2022-08-24T19:58:43.621Z,31.00
2022-08-24T20:01:18.946Z,36.13
2022-08-24T20:03:45.957Z,43.65
2022-08-24T20:06:14.183Z,33.83
2022-08-24T20:08:41.487Z,29.85
2022-08-24T20:11:09.263Z,43.47
2022-08-24T20:13:36.402Z,41.50
2022-08-24T20:16:10.712Z,29.20
2022-08-24T20:18:38.680Z,34.15
2022-08-24T20:21:06.769Z,22.15
2022-08-24T20:23:33.835Z,35.28
2022-08-24T20:26:03.485Z,31.45
2022-08-24T20:28:46.284Z,27.38
2022-08-24T20:31:13.966Z,37.55
2022-08-24T20:33:41.023Z,31.23
2022-08-24T20:36:13.549Z,33.45
2022-08-24T20:38:43.847Z,25.60
2022-08-24T20:41:11.392Z,26.85
2022-08-24T20:43:38.745Z,25.60
2022-08-24T20:46:06.299Z,27.65
2022-08-24T20:48:34.123Z,28.85
2022-08-24T20:51:01.485Z,27.38
2022-08-24T20:53:28.524Z,27.00
2022-08-24T20:55:59.196Z,28.13
2022-08-24T20:58:26.198Z,27.55
2022-08-24T21:00:53.190Z,34.75
2022-08-24T21:03:20.334Z,30.35
2022-08-24T21:05:48.832Z,31.98
2022-08-24T21:08:15.794Z,25.52
2022-08-24T21:10:42.673Z,26.33
2022-08-24T21:13:09.766Z,23.35
2022-08-24T21:15:38.469Z,31.35
2022-08-24T21:18:05.997Z,27.70
2022-08-24T21:20:33.439Z,30.42
2022-08-24T21:23:00.303Z,31.33
2022-08-24T21:25:27.526Z,27.92
2022-08-24T21:27:54.854Z,34.78
2022-08-24T21:30:23.210Z,23.42
2022-08-24T21:33:08.797Z,31.88
2022-08-24T21:35:36.492Z,30.75
2022-08-24T21:38:05.012Z,29.40
2022-08-24T21:40:33.234Z,26.27
2022-08-24T21:43:00.361Z,19.63
2022-08-24T21:45:27.384Z,28.33
2022-08-24T21:47:54.507Z,23.40
2022-08-24T21:50:25.493Z,34.03
2022-08-24T21:52:53.964Z,24.42
2022-08-24T21:55:21.657Z,20.75
2022-08-24T21:57:49.252Z,22.13
2022-08-24T22:00:19.075Z,23.15
2022-08-24T22:02:48.199Z,34.08
2022-08-24T22:05:16.096Z,25.63
2022-08-24T22:07:43.633Z,27.15
2022-08-24T22:10:12.086Z,28.40
2022-08-24T22:12:41.303Z,28.73
2022-08-24T22:15:11.563Z,24.48
2022-08-24T22:17:38.790Z,31.38
2022-08-24T22:20:07.776Z,20.48
2022-08-24T22:22:36.183Z,23.63
2022-08-24T22:25:04.189Z,26.13
2022-08-24T22:27:31.905Z,21.80
2022-08-24T22:29:59.408Z,28.92
2022-08-24T22:32:27.003Z,25.45
2022-08-24T22:34:53.933Z,25.85
2022-08-24T22:37:20.814Z,25.05
2022-08-24T22:39:47.778Z,28.23
2022-08-24T22:42:14.811Z,26.77
2022-08-24T22:44:41.764Z,22.77
2022-08-24T22:47:13.140Z,25.98
2022-08-24T22:49:45.529Z,32.30
2022-08-24T22:52:14.253Z,26.00
2022-08-24T22:54:41.338Z,23.73
2022-08-24T22:57:09.186Z,25.75
2022-08-24T22:59:40.629Z,22.38
2022-08-24T23:02:12.957Z,31.58
2022-08-24T23:04:43.288Z,29.05
2022-08-24T23:07:11.055Z,26.73
2022-08-24T23:09:43.998Z,25.10
2022-08-24T23:12:17.938Z,19.33
2022-08-24T23:17:12.168Z,26.77
2022-08-24T23:19:57.587Z,21.42
2022-08-24T23:22:25.602Z,27.83
2022-08-24T23:24:53.061Z,20.88
2022-08-24T23:27:20.199Z,22.95
2022-08-24T23:29:47.604Z,21.42
2022-08-24T23:32:17.694Z,19.75
2022-08-24T23:34:46.461Z,25.10
2022-08-24T23:37:15.569Z,25.10
2022-08-24T23:39:42.938Z,19.55
2022-08-24T23:42:10.039Z,17.27
2022-08-24T23:44:37.666Z,22.83
2022-08-24T23:47:05.014Z,28.25
2022-08-24T23:49:32.677Z,24.48
2022-08-24T23:51:59.899Z,23.90
2022-08-24T23:54:27.725Z,19.58
2022-08-24T23:56:55.309Z,20.85
2022-08-24T23:59:26.685Z,19.23
